sensor_id;sensor_type;location;lat;lon;timestamp;pressure;altitude;pressure_sealevel;temperature;humidity
6136;BME280;24008;42.664;23.372;2022-09-30T00:01:42;94321.50;;;16.65;100.00
6136;BME280;24008;42.664;23.372;2022-09-30T00:04:12;94437.56;;;17.35;100.00
6136;BME280;24008;42.664;23.372;2022-09-30T00:06:40;94430.00;;;17.34;99.91
6136;BME280;24008;42.664;23.372;2022-09-30T00:09:07;94352.97;;;16.81;99.98
6136;BME280;24008;42.664;23.372;2022-09-30T00:11:37;94452.88;;;17.37;99.59
6136;BME280;24008;42.664;23.372;2022-09-30T00:14:04;94450.47;;;17.35;99.53
6136;BME280;24008;42.664;23.372;2022-09-30T00:16:34;94440.75;;;17.37;99.22
6136;BME280;24008;42.664;23.372;2022-09-30T00:19:02;94452.09;;;17.36;99.26
6136;BME280;24008;42.664;23.372;2022-09-30T00:21:31;94440.59;;;17.39;99.07
6136;BME280;24008;42.664;23.372;2022-09-30T00:23:59;94428.22;;;17.34;98.70
6136;BME280;24008;42.664;23.372;2022-09-30T00:26:25;94410.16;;;17.06;99.02
6136;BME280;24008;42.664;23.372;2022-09-30T00:28:56;94379.94;;;16.79;98.86
6136;BME280;24008;42.664;23.372;2022-09-30T00:31:26;94458.16;;;17.28;99.23
6136;BME280;24008;42.664;23.372;2022-09-30T00:33:53;94422.44;;;17.04;99.30
6136;BME280;24008;42.664;23.372;2022-09-30T00:36:33;94451.81;;;17.24;99.84
6136;BME280;24008;42.664;23.372;2022-09-30T00:39:00;94453.41;;;17.25;99.82
6136;BME280;24008;42.664;23.372;2022-09-30T00:41:26;94455.59;;;17.28;99.39
6136;BME280;24008;42.664;23.372;2022-09-30T00:43:55;94445.66;;;17.25;99.14
6136;BME280;24008;42.664;23.372;2022-09-30T00:46:27;94439.88;;;17.23;98.95
6136;BME280;24008;42.664;23.372;2022-09-30T00:48:57;94422.22;;;16.99;99.08
6136;BME280;24008;42.664;23.372;2022-09-30T00:51:30;94439.88;;;17.23;98.79
6136;BME280;24008;42.664;23.372;2022-09-30T00:54:00;94446.03;;;17.22;98.84
6136;BME280;24008;42.664;23.372;2022-09-30T00:56:30;94436.41;;;17.10;99.58
6136;BME280;24008;42.664;23.372;2022-09-30T00:59:03;94434.03;;;16.87;100.00
6136;BME280;24008;42.664;23.372;2022-09-30T01:01:32;94360.97;;;16.44;100.00
6136;BME280;24008;42.664;23.372;2022-09-30T01:04:02;94427.38;;;16.99;100.00
6136;BME280;24008;42.664;23.372;2022-09-30T01:06:31;94414.50;;;17.06;100.00
6136;BME280;24008;42.664;23.372;2022-09-30T01:08:59;94432.66;;;17.12;99.75
6136;BME280;24008;42.664;23.372;2022-09-30T01:11:27;94330.78;;;16.38;99.87
6136;BME280;24008;42.664;23.372;2022-09-30T01:13:56;94323.59;;;16.33;100.00
6136;BME280;24008;42.664;23.372;2022-09-30T01:16:50;94328.06;;;16.46;100.00
6136;BME280;24008;42.664;23.372;2022-09-30T01:19:35;94396.22;;;16.79;99.22
6136;BME280;24008;42.664;23.372;2022-09-30T01:22:19;94385.50;;;16.76;99.65
6136;BME280;24008;42.664;23.372;2022-09-30T01:25:02;94431.09;;;16.69;100.00
6136;BME280;24008;42.664;23.372;2022-09-30T01:27:46;94448.28;;;16.83;100.00
6136;BME280;24008;42.664;23.372;2022-09-30T01:30:18;94465.34;;;16.77;100.00
6136;BME280;24008;42.664;23.372;2022-09-30T01:35:49;94439.00;;;16.67;100.00
6136;BME280;24008;42.664;23.372;2022-09-30T01:38:25;94200.31;;;15.16;99.85
6136;BME280;24008;42.664;23.372;2022-09-30T01:41:00;94409.94;;;16.58;99.07
6136;BME280;24008;42.664;23.372;2022-09-30T01:43:38;94436.69;;;16.72;98.92
6136;BME280;24008;42.664;23.372;2022-09-30T01:46:16;94441.66;;;16.74;98.30
6136;BME280;24008;42.664;23.372;2022-09-30T01:48:50;94363.94;;;16.19;98.63
6136;BME280;24008;42.664;23.372;2022-09-30T01:51:25;93703.38;;;12.12;97.34
6136;BME280;24008;42.664;23.372;2022-09-30T01:53:59;93828.75;;;12.95;97.08
6136;BME280;24008;42.664;23.372;2022-09-30T01:56:34;94384.28;;;16.29;97.02
6136;BME280;24008;42.664;23.372;2022-09-30T01:59:07;94439.94;;;16.81;97.19
6136;BME280;24008;42.664;23.372;2022-09-30T02:01:40;94435.38;;;16.62;97.96
6136;BME280;24008;42.664;23.372;2022-09-30T02:04:16;94240.06;;;15.28;98.18
6136;BME280;24008;42.664;23.372;2022-09-30T02:06:49;94433.44;;;16.64;97.95
6136;BME280;24008;42.664;23.372;2022-09-30T02:09:20;94385.13;;;16.36;97.91
6136;BME280;24008;42.664;23.372;2022-09-30T02:11:50;94436.63;;;16.66;97.41
6136;BME280;24008;42.664;23.372;2022-09-30T02:14:22;94445.38;;;16.65;97.26
6136;BME280;24008;42.664;23.372;2022-09-30T02:16:54;94374.19;;;16.13;96.82
6136;BME280;24008;42.664;23.372;2022-09-30T02:19:28;94370.56;;;16.07;97.05
6136;BME280;24008;42.664;23.372;2022-09-30T02:22:00;93807.13;;;12.46;96.11
6136;BME280;24008;42.664;23.372;2022-09-30T02:24:50;94425.53;;;16.29;96.38
6136;BME280;24008;42.664;23.372;2022-09-30T02:27:20;94447.69;;;16.45;96.65
6136;BME280;24008;42.664;23.372;2022-09-30T02:29:51;94247.91;;;15.20;96.75
6136;BME280;24008;42.664;23.372;2022-09-30T02:32:23;94463.88;;;16.53;97.13
6136;BME280;24008;42.664;23.372;2022-09-30T02:34:55;94289.59;;;15.44;97.29
6136;BME280;24008;42.664;23.372;2022-09-30T02:37:27;94335.94;;;15.59;97.31
6136;BME280;24008;42.664;23.372;2022-09-30T02:40:02;94456.19;;;16.39;100.00
6136;BME280;24008;42.664;23.372;2022-09-30T02:42:31;94454.28;;;16.47;100.00
6136;BME280;24008;42.664;23.372;2022-09-30T02:45:00;94452.94;;;16.51;100.00
6136;BME280;24008;42.664;23.372;2022-09-30T02:47:36;94447.78;;;16.51;100.00
6136;BME280;24008;42.664;23.372;2022-09-30T02:50:11;94322.97;;;15.38;100.00
6136;BME280;24008;42.664;23.372;2022-09-30T02:52:56;94319.75;;;15.65;100.00
6136;BME280;24008;42.664;23.372;2022-09-30T02:55:31;94452.31;;;16.49;100.00
6136;BME280;24008;42.664;23.372;2022-09-30T02:58:03;94449.63;;;16.57;100.00
6136;BME280;24008;42.664;23.372;2022-09-30T03:00:34;94453.97;;;16.36;100.00
6136;BME280;24008;42.664;23.372;2022-09-30T03:03:04;94472.06;;;16.42;100.00
6136;BME280;24008;42.664;23.372;2022-09-30T03:05:34;94382.13;;;15.97;100.00
6136;BME280;24008;42.664;23.372;2022-09-30T03:08:01;94461.41;;;16.45;100.00
6136;BME280;24008;42.664;23.372;2022-09-30T03:10:28;94262.28;;;15.14;100.00
6136;BME280;24008;42.664;23.372;2022-09-30T03:13:21;94356.69;;;15.72;100.00
6136;BME280;24008;42.664;23.372;2022-09-30T03:16:04;94344.44;;;15.74;100.00
6136;BME280;24008;42.664;23.372;2022-09-30T03:18:47;94210.59;;;14.80;100.00
6136;BME280;24008;42.664;23.372;2022-09-30T03:21:32;94464.59;;;16.47;100.00
6136;BME280;24008;42.664;23.372;2022-09-30T03:24:21;94508.09;;;16.50;100.00
6136;BME280;24008;42.664;23.372;2022-09-30T03:26:56;94475.19;;;16.52;100.00
6136;BME280;24008;42.664;23.372;2022-09-30T03:29:33;94391.75;;;16.03;100.00
6136;BME280;24008;42.664;23.372;2022-09-30T03:32:11;94466.19;;;16.48;100.00
6136;BME280;24008;42.664;23.372;2022-09-30T03:35:00;94472.06;;;16.42;100.00
6136;BME280;24008;42.664;23.372;2022-09-30T03:37:36;94366.28;;;15.78;100.00
6136;BME280;24008;42.664;23.372;2022-09-30T03:40:15;94476.16;;;16.51;100.00
6136;BME280;24008;42.664;23.372;2022-09-30T03:42:53;94364.34;;;15.80;100.00
6136;BME280;24008;42.664;23.372;2022-09-30T03:45:28;94453.28;;;16.27;100.00
6136;BME280;24008;42.664;23.372;2022-09-30T03:48:00;94477.75;;;16.52;100.00
6136;BME280;24008;42.664;23.372;2022-09-30T03:50:30;94478.75;;;16.51;100.00
6136;BME280;24008;42.664;23.372;2022-09-30T03:52:59;94490.84;;;16.51;100.00
6136;BME280;24008;42.664;23.372;2022-09-30T03:55:27;94486.66;;;16.50;100.00
6136;BME280;24008;42.664;23.372;2022-09-30T03:57:55;94492.44;;;16.52;100.00
6136;BME280;24008;42.664;23.372;2022-09-30T04:00:23;94433.38;;;16.21;100.00
6136;BME280;24008;42.664;23.372;2022-09-30T04:02:50;94496.06;;;16.57;100.00
6136;BME280;24008;42.664;23.372;2022-09-30T04:05:17;94499.44;;;16.58;100.00
6136;BME280;24008;42.664;23.372;2022-09-30T04:07:44;94506.72;;;16.54;100.00
6136;BME280;24008;42.664;23.372;2022-09-30T04:10:13;94502.06;;;16.43;100.00
6136;BME280;24008;42.664;23.372;2022-09-30T04:12:39;94502.69;;;16.45;100.00
6136;BME280;24008;42.664;23.372;2022-09-30T04:15:07;94503.03;;;16.42;100.00
6136;BME280;24008;42.664;23.372;2022-09-30T04:17:34;94297.53;;;15.13;100.00
6136;BME280;24008;42.664;23.372;2022-09-30T04:20:01;94504.75;;;16.35;100.00
6136;BME280;24008;42.664;23.372;2022-09-30T04:22:28;94407.53;;;15.78;100.00
6136;BME280;24008;42.664;23.372;2022-09-30T04:24:55;94500.09;;;16.45;100.00
6136;BME280;24008;42.664;23.372;2022-09-30T04:27:23;94502.69;;;16.45;100.00
6136;BME280;24008;42.664;23.372;2022-09-30T04:29:49;94485.06;;;16.49;100.00
6136;BME280;24008;42.664;23.372;2022-09-30T04:32:16;94379.16;;;15.78;100.00
6136;BME280;24008;42.664;23.372;2022-09-30T04:34:43;94501.16;;;16.51;100.00
6136;BME280;24008;42.664;23.372;2022-09-30T04:37:10;94483.13;;;16.36;100.00
6136;BME280;24008;42.664;23.372;2022-09-30T04:39:37;94508.59;;;16.61;100.00
6136;BME280;24008;42.664;23.372;2022-09-30T04:42:04;94323.81;;;15.09;100.00
6136;BME280;24008;42.664;23.372;2022-09-30T04:44:32;94511.16;;;16.39;100.00
6136;BME280;24008;42.664;23.372;2022-09-30T04:46:59;94488.34;;;16.07;100.00
6136;BME280;24008;42.664;23.372;2022-09-30T04:49:26;94389.22;;;15.44;100.00
6136;BME280;24008;42.664;23.372;2022-09-30T04:51:53;94544.97;;;16.30;100.00
6136;BME280;24008;42.664;23.372;2022-09-30T04:54:20;94531.50;;;16.34;100.00
6136;BME280;24008;42.664;23.372;2022-09-30T04:56:47;94528.78;;;16.21;100.00
6136;BME280;24008;42.664;23.372;2022-09-30T04:59:14;94493.72;;;15.91;100.00
6136;BME280;24008;42.664;23.372;2022-09-30T05:01:42;94550.13;;;16.30;100.00
6136;BME280;24008;42.664;23.372;2022-09-30T05:04:09;94557.53;;;16.18;100.00
6136;BME280;24008;42.664;23.372;2022-09-30T05:06:36;94520.81;;;15.87;100.00
6136;BME280;24008;42.664;23.372;2022-09-30T05:09:04;94423.84;;;15.27;100.00
6136;BME280;24008;42.664;23.372;2022-09-30T05:11:31;94540.59;;;16.30;100.00
6136;BME280;24008;42.664;23.372;2022-09-30T05:13:58;94547.84;;;16.05;100.00
6136;BME280;24008;42.664;23.372;2022-09-30T05:16:25;94543.97;;;16.31;100.00
6136;BME280;24008;42.664;23.372;2022-09-30T05:18:54;94544.69;;;16.25;100.00
6136;BME280;24008;42.664;23.372;2022-09-30T05:21:20;94503.81;;;16.07;100.00
6136;BME280;24008;42.664;23.372;2022-09-30T05:23:47;94514.84;;;16.01;100.00
6136;BME280;24008;42.664;23.372;2022-09-30T05:26:14;94464.72;;;15.59;100.00
6136;BME280;24008;42.664;23.372;2022-09-30T05:28:41;94528.44;;;16.09;100.00
6136;BME280;24008;42.664;23.372;2022-09-30T05:31:09;94462.97;;;15.74;100.00
6136;BME280;24008;42.664;23.372;2022-09-30T05:33:38;94565.38;;;16.46;100.00
6136;BME280;24008;42.664;23.372;2022-09-30T05:36:08;94570.63;;;16.52;100.00
6136;BME280;24008;42.664;23.372;2022-09-30T05:38:35;94570.25;;;16.55;100.00
6136;BME280;24008;42.664;23.372;2022-09-30T05:41:05;94573.06;;;16.25;100.00
6136;BME280;24008;42.664;23.372;2022-09-30T05:43:33;94574.84;;;16.39;100.00
6136;BME280;24008;42.664;23.372;2022-09-30T05:46:00;94457.56;;;15.69;100.00
6136;BME280;24008;42.664;23.372;2022-09-30T05:48:26;94595.72;;;16.58;100.00
6136;BME280;24008;42.664;23.372;2022-09-30T05:50:53;94594.66;;;16.68;100.00
6136;BME280;24008;42.664;23.372;2022-09-30T05:53:22;94600.25;;;16.71;100.00
6136;BME280;24008;42.664;23.372;2022-09-30T05:55:49;94603.47;;;16.73;100.00
6136;BME280;24008;42.664;23.372;2022-09-30T05:58:16;94538.13;;;16.22;100.00
6136;BME280;24008;42.664;23.372;2022-09-30T06:00:46;94562.50;;;16.55;100.00
6136;BME280;24008;42.664;23.372;2022-09-30T06:03:13;94543.09;;;16.38;100.00
6136;BME280;24008;42.664;23.372;2022-09-30T06:05:40;94606.00;;;16.88;100.00
6136;BME280;24008;42.664;23.372;2022-09-30T06:10:57;94496.84;;;16.22;100.00
6136;BME280;24008;42.664;23.372;2022-09-30T06:13:24;94611.22;;;16.95;100.00
6136;BME280;24008;42.664;23.372;2022-09-30T06:15:54;94618.50;;;17.06;100.00
6136;BME280;24008;42.664;23.372;2022-09-30T06:18:22;94609.47;;;17.16;100.00
6136;BME280;24008;42.664;23.372;2022-09-30T06:20:48;94605.84;;;17.11;98.24
6136;BME280;24008;42.664;23.372;2022-09-30T06:23:15;94475.00;;;16.18;97.09
6136;BME280;24008;42.664;23.372;2022-09-30T06:25:42;94618.59;;;17.12;96.93
6136;BME280;24008;42.664;23.372;2022-09-30T06:28:10;94604.44;;;17.08;97.16
6136;BME280;24008;42.664;23.372;2022-09-30T06:30:37;94374.91;;;15.71;96.42
6136;BME280;24008;42.664;23.372;2022-09-30T06:33:04;94624.97;;;17.16;96.20
6136;BME280;24008;42.664;23.372;2022-09-30T06:35:30;94635.44;;;17.29;96.11
6136;BME280;24008;42.664;23.372;2022-09-30T06:37:57;94621.88;;;17.27;95.05
6136;BME280;24008;42.664;23.372;2022-09-30T06:40:24;94536.66;;;16.49;97.08
6136;BME280;24008;42.664;23.372;2022-09-30T06:42:51;94617.84;;;17.40;98.61
6136;BME280;24008;42.664;23.372;2022-09-30T06:45:24;94632.06;;;17.72;96.11
6136;BME280;24008;42.664;23.372;2022-09-30T06:47:55;94635.81;;;17.69;92.61
6136;BME280;24008;42.664;23.372;2022-09-30T06:50:22;94653.03;;;17.62;92.04
6136;BME280;24008;42.664;23.372;2022-09-30T06:52:49;94578.72;;;17.43;91.09
6136;BME280;24008;42.664;23.372;2022-09-30T06:55:16;94650.56;;;17.96;89.59
6136;BME280;24008;42.664;23.372;2022-09-30T06:57:44;94658.03;;;18.13;89.23
6136;BME280;24008;42.664;23.372;2022-09-30T07:00:12;94666.38;;;18.43;90.48
6136;BME280;24008;42.664;23.372;2022-09-30T07:02:43;94668.59;;;19.28;91.08
6136;BME280;24008;42.664;23.372;2022-09-30T07:05:09;94600.66;;;19.59;86.49
6136;BME280;24008;42.664;23.372;2022-09-30T07:07:36;94461.06;;;19.49;79.83
6136;BME280;24008;42.664;23.372;2022-09-30T07:10:03;94671.00;;;21.32;75.43
6136;BME280;24008;42.664;23.372;2022-09-30T07:12:30;94595.28;;;21.15;72.35
6136;BME280;24008;42.664;23.372;2022-09-30T07:14:58;94679.41;;;21.66;70.83
6136;BME280;24008;42.664;23.372;2022-09-30T07:17:25;94624.94;;;21.39;71.00
6136;BME280;24008;42.664;23.372;2022-09-30T07:19:53;94691.38;;;21.73;69.79
6136;BME280;24008;42.664;23.372;2022-09-30T07:22:20;94537.63;;;20.56;69.32
6136;BME280;24008;42.664;23.372;2022-09-30T07:24:54;94602.06;;;20.78;70.41
6136;BME280;24008;42.664;23.372;2022-09-30T07:27:22;94589.16;;;20.59;71.09
6136;BME280;24008;42.664;23.372;2022-09-30T07:29:50;94693.41;;;21.33;72.40
6136;BME280;24008;42.664;23.372;2022-09-30T07:32:17;94694.47;;;21.57;71.82
6136;BME280;24008;42.664;23.372;2022-09-30T07:34:44;94645.94;;;21.44;71.05
6136;BME280;24008;42.664;23.372;2022-09-30T07:37:15;94716.41;;;22.31;71.56
6136;BME280;24008;42.664;23.372;2022-09-30T07:39:44;94703.16;;;23.78;70.25
6136;BME280;24008;42.664;23.372;2022-09-30T07:42:12;94704.16;;;25.52;62.43
6136;BME280;24008;42.664;23.372;2022-09-30T07:44:39;94687.22;;;27.27;53.59
6136;BME280;24008;42.664;23.372;2022-09-30T07:47:09;94709.44;;;28.86;48.76
6136;BME280;24008;42.664;23.372;2022-09-30T07:49:37;94662.38;;;29.82;46.26
6136;BME280;24008;42.664;23.372;2022-09-30T07:52:06;94697.25;;;31.40;42.39
6136;BME280;24008;42.664;23.372;2022-09-30T07:54:34;94691.78;;;32.53;40.08
6136;BME280;24008;42.664;23.372;2022-09-30T07:57:03;94667.91;;;33.35;37.07
6136;BME280;24008;42.664;23.372;2022-09-30T07:59:35;94700.84;;;34.28;34.68
6136;BME280;24008;42.664;23.372;2022-09-30T08:02:02;94651.88;;;34.53;33.93
6136;BME280;24008;42.664;23.372;2022-09-30T08:04:29;94638.88;;;34.51;33.33
6136;BME280;24008;42.664;23.372;2022-09-30T08:06:59;94709.16;;;34.54;33.62
6136;BME280;24008;42.664;23.372;2022-09-30T08:09:27;94720.44;;;33.71;33.23
6136;BME280;24008;42.664;23.372;2022-09-30T08:11:56;94690.41;;;32.32;35.49
6136;BME280;24008;42.664;23.372;2022-09-30T08:14:24;94726.09;;;31.31;37.09
6136;BME280;24008;42.664;23.372;2022-09-30T08:16:52;94729.91;;;30.03;39.50
6136;BME280;24008;42.664;23.372;2022-09-30T08:19:21;94728.84;;;28.80;42.63
6136;BME280;24008;42.664;23.372;2022-09-30T08:21:49;94736.94;;;27.82;44.78
6136;BME280;24008;42.664;23.372;2022-09-30T08:24:17;94730.25;;;27.04;47.08
6136;BME280;24008;42.664;23.372;2022-09-30T08:26:44;94807.19;;;26.14;49.45
6136;BME280;24008;42.664;23.372;2022-09-30T08:29:12;94738.13;;;25.35;50.54
6136;BME280;24008;42.664;23.372;2022-09-30T08:31:39;94742.25;;;24.26;52.56
6136;BME280;24008;42.664;23.372;2022-09-30T08:34:06;94735.28;;;23.30;56.63
6136;BME280;24008;42.664;23.372;2022-09-30T08:36:33;94737.53;;;23.27;58.73
6136;BME280;24008;42.664;23.372;2022-09-30T08:39:00;94712.53;;;23.01;58.54
6136;BME280;24008;42.664;23.372;2022-09-30T08:41:41;94742.00;;;23.02;59.71
6136;BME280;24008;42.664;23.372;2022-09-30T08:44:21;94734.91;;;22.90;60.66
6136;BME280;24008;42.664;23.372;2022-09-30T08:46:56;94738.97;;;22.37;61.01
6136;BME280;24008;42.664;23.372;2022-09-30T08:49:35;94742.56;;;22.42;61.93
6136;BME280;24008;42.664;23.372;2022-09-30T08:52:11;94671.19;;;22.00;62.69
6136;BME280;24008;42.664;23.372;2022-09-30T08:54:43;94756.16;;;22.44;64.65
6136;BME280;24008;42.664;23.372;2022-09-30T08:57:12;94756.16;;;22.44;64.59
6136;BME280;24008;42.664;23.372;2022-09-30T08:59:43;94756.97;;;22.45;65.17
6136;BME280;24008;42.664;23.372;2022-09-30T09:02:16;94549.72;;;21.13;65.75
6136;BME280;24008;42.664;23.372;2022-09-30T09:04:45;94755.88;;;22.27;64.76
6136;BME280;24008;42.664;23.372;2022-09-30T09:07:21;94568.56;;;21.02;65.44
6136;BME280;24008;42.664;23.372;2022-09-30T09:10:00;94759.06;;;22.30;67.05
6136;BME280;24008;42.664;23.372;2022-09-30T09:12:38;94759.13;;;22.23;66.09
6136;BME280;24008;42.664;23.372;2022-09-30T09:15:21;94624.81;;;21.34;64.88
6136;BME280;24008;42.664;23.372;2022-09-30T09:18:05;94766.03;;;22.36;65.07
6136;BME280;24008;42.664;23.372;2022-09-30T09:20:39;94766.63;;;22.38;65.28
6136;BME280;24008;42.664;23.372;2022-09-30T09:23:10;94756.78;;;22.40;65.73
6136;BME280;24008;42.664;23.372;2022-09-30T09:25:39;94730.56;;;22.10;65.63
6136;BME280;24008;42.664;23.372;2022-09-30T09:28:21;94707.72;;;22.12;65.88
6136;BME280;24008;42.664;23.372;2022-09-30T09:30:56;94763.28;;;22.55;65.61
6136;BME280;24008;42.664;23.372;2022-09-30T09:33:27;94590.34;;;21.39;65.15
6136;BME280;24008;42.664;23.372;2022-09-30T09:36:04;94736.16;;;22.38;64.76
6136;BME280;24008;42.664;23.372;2022-09-30T09:38:47;94758.78;;;22.62;64.26
6136;BME280;24008;42.664;23.372;2022-09-30T09:41:26;94687.88;;;22.17;64.23
6136;BME280;24008;42.664;23.372;2022-09-30T09:44:02;94733.66;;;22.50;64.41
6136;BME280;24008;42.664;23.372;2022-09-30T09:46:40;94674.47;;;22.14;64.75
6136;BME280;24008;42.664;23.372;2022-09-30T09:49:28;94765.91;;;22.74;64.36
6136;BME280;24008;42.664;23.372;2022-09-30T09:52:04;94716.66;;;22.22;62.69
6136;BME280;24008;42.664;23.372;2022-09-30T09:54:39;94754.38;;;22.63;64.16
6136;BME280;24008;42.664;23.372;2022-09-30T09:57:07;94753.00;;;22.36;61.91
6136;BME280;24008;42.664;23.372;2022-09-30T09:59:35;94758.91;;;22.49;62.72
6136;BME280;24008;42.664;23.372;2022-09-30T10:02:21;94751.19;;;22.61;61.61
6136;BME280;24008;42.664;23.372;2022-09-30T10:04:49;94686.88;;;22.18;61.42
6136;BME280;24008;42.664;23.372;2022-09-30T10:07:24;94733.78;;;22.37;61.28
6136;BME280;24008;42.664;23.372;2022-09-30T10:10:05;94766.47;;;22.33;61.30
6136;BME280;24008;42.664;23.372;2022-09-30T10:12:33;94763.78;;;22.46;62.38
6136;BME280;24008;42.664;23.372;2022-09-30T10:15:04;94761.69;;;22.54;62.60
6136;BME280;24008;42.664;23.372;2022-09-30T10:17:39;94756.56;;;22.66;63.52
6136;BME280;24008;42.664;23.372;2022-09-30T10:20:17;94684.16;;;22.32;62.27
6136;BME280;24008;42.664;23.372;2022-09-30T10:22:46;94748.22;;;22.82;61.78
6136;BME280;24008;42.664;23.372;2022-09-30T10:25:22;94752.38;;;22.90;61.52
6136;BME280;24008;42.664;23.372;2022-09-30T10:27:55;94743.88;;;22.94;60.89
6136;BME280;24008;42.664;23.372;2022-09-30T10:30:34;94631.19;;;22.19;60.68
6136;BME280;24008;42.664;23.372;2022-09-30T10:33:21;94734.31;;;23.07;59.82
6136;BME280;24008;42.664;23.372;2022-09-30T10:36:05;94735.50;;;23.11;58.67
6136;BME280;24008;42.664;23.372;2022-09-30T10:38:34;94590.81;;;22.10;58.73
6136;BME280;24008;42.664;23.372;2022-09-30T10:41:03;94714.13;;;22.84;58.85
6136;BME280;24008;42.664;23.372;2022-09-30T10:43:35;94740.28;;;23.14;58.21
6136;BME280;24008;42.664;23.372;2022-09-30T10:46:03;94680.03;;;22.85;58.11
6136;BME280;24008;42.664;23.372;2022-09-30T10:48:34;94739.84;;;23.17;55.47
6136;BME280;24008;42.664;23.372;2022-09-30T10:51:01;94704.78;;;22.94;55.65
6136;BME280;24008;42.664;23.372;2022-09-30T10:53:31;94723.81;;;22.95;53.17
6136;BME280;24008;42.664;23.372;2022-09-30T10:56:00;94485.03;;;21.54;54.29
6136;BME280;24008;42.664;23.372;2022-09-30T10:58:46;94731.00;;;23.18;54.80
6136;BME280;24008;42.664;23.372;2022-09-30T11:01:20;94737.38;;;23.22;54.15
6136;BME280;24008;42.664;23.372;2022-09-30T11:04:02;94714.63;;;23.11;53.74
6136;BME280;24008;42.664;23.372;2022-09-30T11:06:36;94737.66;;;23.32;53.93
6136;BME280;24008;42.664;23.372;2022-09-30T11:09:07;94728.81;;;23.33;54.01
6136;BME280;24008;42.664;23.372;2022-09-30T11:11:39;94739.06;;;23.46;51.80
6136;BME280;24008;42.664;23.372;2022-09-30T11:14:24;94744.66;;;23.50;49.93
6136;BME280;24008;42.664;23.372;2022-09-30T11:17:01;94742.47;;;23.47;51.24
6136;BME280;24008;42.664;23.372;2022-09-30T11:19:35;94738.66;;;23.49;50.49
6136;BME280;24008;42.664;23.372;2022-09-30T11:22:31;94622.34;;;22.82;51.15
6136;BME280;24008;42.664;23.372;2022-09-30T11:24:59;94696.38;;;23.29;51.08
6136;BME280;24008;42.664;23.372;2022-09-30T11:27:34;94743.28;;;23.65;49.63
6136;BME280;24008;42.664;23.372;2022-09-30T11:30:12;94685.47;;;23.32;49.62
6136;BME280;24008;42.664;23.372;2022-09-30T11:32:52;94748.19;;;23.74;50.77
6136;BME280;24008;42.664;23.372;2022-09-30T11:35:35;94619.00;;;22.93;50.30
6136;BME280;24008;42.664;23.372;2022-09-30T11:38:09;94762.16;;;23.79;50.63
6136;BME280;24008;42.664;23.372;2022-09-30T11:40:44;94749.91;;;23.80;48.93
6136;BME280;24008;42.664;23.372;2022-09-30T11:43:23;94748.09;;;23.80;48.52
6136;BME280;24008;42.664;23.372;2022-09-30T11:46:06;94745.47;;;23.80;47.98
6136;BME280;24008;42.664;23.372;2022-09-30T11:48:49;94747.88;;;23.82;47.46
6136;BME280;24008;42.664;23.372;2022-09-30T11:51:27;94721.41;;;23.66;47.08
6136;BME280;24008;42.664;23.372;2022-09-30T11:54:10;94748.25;;;23.85;47.49
6136;BME280;24008;42.664;23.372;2022-09-30T11:56:48;94558.28;;;22.56;47.67
6136;BME280;24008;42.664;23.372;2022-09-30T11:59:25;94343.19;;;20.91;47.32
6136;BME280;24008;42.664;23.372;2022-09-30T12:01:57;94743.81;;;23.86;47.87
6136;BME280;24008;42.664;23.372;2022-09-30T12:04:28;94744.25;;;23.83;44.61
6136;BME280;24008;42.664;23.372;2022-09-30T12:07:03;94739.81;;;23.83;44.38
6136;BME280;24008;42.664;23.372;2022-09-30T12:09:35;94718.78;;;23.66;43.52
6136;BME280;24008;42.664;23.372;2022-09-30T12:12:06;94740.69;;;23.65;42.56
6136;BME280;24008;42.664;23.372;2022-09-30T12:14:38;94753.34;;;23.92;44.08
6136;BME280;24008;42.664;23.372;2022-09-30T12:17:13;94754.66;;;24.01;44.10
6136;BME280;24008;42.664;23.372;2022-09-30T12:19:46;94721.69;;;23.88;44.11
6136;BME280;24008;42.664;23.372;2022-09-30T12:22:19;94696.25;;;23.84;44.10
6136;BME280;24008;42.664;23.372;2022-09-30T12:24:47;94616.06;;;23.31;43.25
6136;BME280;24008;42.664;23.372;2022-09-30T12:27:17;94753.16;;;24.35;43.13
6136;BME280;24008;42.664;23.372;2022-09-30T12:29:54;94756.66;;;24.40;42.81
6136;BME280;24008;42.664;23.372;2022-09-30T12:35:56;94657.44;;;23.87;43.51
6136;BME280;24008;42.664;23.372;2022-09-30T12:38:40;94581.44;;;23.42;44.57
6136;BME280;24008;42.664;23.372;2022-09-30T12:41:29;94765.78;;;24.50;43.25
6136;BME280;24008;42.664;23.372;2022-09-30T12:47:31;94727.03;;;24.35;44.75
6136;BME280;24008;42.664;23.372;2022-09-30T12:50:03;94618.84;;;23.66;44.94
6136;BME280;24008;42.664;23.372;2022-09-30T12:52:32;94753.53;;;24.50;44.94
6136;BME280;24008;42.664;23.372;2022-09-30T12:55:05;94622.25;;;23.66;44.83
6136;BME280;24008;42.664;23.372;2022-09-30T12:57:39;94757.81;;;24.45;42.91
6136;BME280;24008;42.664;23.372;2022-09-30T13:00:14;94689.25;;;23.96;43.88
6136;BME280;24008;42.664;23.372;2022-09-30T13:02:43;94766.22;;;24.47;43.20
6136;BME280;24008;42.664;23.372;2022-09-30T13:05:46;94757.81;;;24.45;44.66
6136;BME280;24008;42.664;23.372;2022-09-30T13:08:44;94752.59;;;24.45;44.55
6136;BME280;24008;42.664;23.372;2022-09-30T13:11:32;94761.44;;;24.44;44.16
6136;BME280;24008;42.664;23.372;2022-09-30T13:14:11;94628.78;;;23.57;44.78
6136;BME280;24008;42.664;23.372;2022-09-30T13:16:58;94757.16;;;24.37;44.01
6136;BME280;24008;42.664;23.372;2022-09-30T13:19:36;94725.78;;;24.26;44.12
6136;BME280;24008;42.664;23.372;2022-09-30T13:25:16;94678.41;;;23.81;43.73
6136;BME280;24008;42.664;23.372;2022-09-30T13:27:45;94765.19;;;24.36;43.62
6136;BME280;24008;42.664;23.372;2022-09-30T13:30:36;94772.03;;;24.37;44.33
6136;BME280;24008;42.664;23.372;2022-09-30T13:36:27;94765.19;;;24.36;43.71
6136;BME280;24008;42.664;23.372;2022-09-30T13:39:18;94769.19;;;24.38;43.25
6136;BME280;24008;42.664;23.372;2022-09-30T13:41:54;94769.19;;;24.38;43.73
6136;BME280;24008;42.664;23.372;2022-09-30T13:44:31;94713.09;;;23.99;43.39